RUK879F EGHH-EGPH
Flight info
| Callsign | RUK879F |
|---|---|
| Flight time | 1h 3m |
| Altitude | 34000 |
| Route | SAM Q41 SILVA UM605 DTY UY53 SAPCO UN57 POL UN601 RIBEL DCT INPIP |
| Aircraft | B738/M-SDE2E3FGHIRWXY/LB1 |
Departure
| Time | 2026-04-20 17:14 |
|---|---|
| Airport | Bournemouth Airport (EGHH) |
Arrival
| Time | 2026-04-20 18:17 |
|---|---|
| Airport | Edinburgh Airport (EGPH) |
| Time | Latitude | Longitude | Altitude | Speed | Heading |
|---|---|---|---|---|---|
| 2026-04-20 16:55 | 50.77846 | -1.83384 | 45 ft | 0 kts | 86° |
| 2026-04-20 17:05 | 50.77843 | -1.83418 | 45 ft | 4 kts | 67° |
| 2026-04-20 17:05 | 50.77828 | -1.83451 | 39 ft | 4 kts | 37° |
| 2026-04-20 17:06 | 50.77805 | -1.83468 | 39 ft | 4 kts | 7° |
| 2026-04-20 17:06 | 50.77794 | -1.83470 | 40 ft | 0 kts | 356° |
| 2026-04-20 17:10 | 50.77795 | -1.83470 | 45 ft | 1 kts | 356° |
| 2026-04-20 17:11 | 50.77832 | -1.83473 | 45 ft | 11 kts | 356° |
| 2026-04-20 17:11 | 50.77929 | -1.83493 | 45 ft | 15 kts | 356° |
| 2026-04-20 17:11 | 50.78005 | -1.83417 | 45 ft | 13 kts | 58° |
| 2026-04-20 17:11 | 50.78050 | -1.83275 | 46 ft | 16 kts | 64° |
| 2026-04-20 17:12 | 50.78117 | -1.83111 | 45 ft | 19 kts | 65° |
| 2026-04-20 17:12 | 50.78120 | -1.82928 | 45 ft | 11 kts | 85° |
| 2026-04-20 17:12 | 50.78144 | -1.82812 | 45 ft | 11 kts | 60° |
| 2026-04-20 17:12 | 50.78199 | -1.82733 | 45 ft | 11 kts | 32° |
| 2026-04-20 17:13 | 50.78256 | -1.82704 | 46 ft | 6 kts | 359° |
| 2026-04-20 17:13 | 50.78266 | -1.82727 | 44 ft | 2 kts | 271° |
| 2026-04-20 17:13 | 50.78247 | -1.82823 | 46 ft | 29 kts | 255° |
| 2026-04-20 17:13 | 50.78122 | -1.83588 | 43 ft | 113 kts | 256° |
| 2026-04-20 17:14 | 50.77865 | -1.85113 | 235 ft | 160 kts | 251° |
| 2026-04-20 17:14 | 50.77587 | -1.86783 | 1142 ft | 163 kts | 257° |
| 2026-04-20 17:14 | 50.77442 | -1.88624 | 1843 ft | 181 kts | 271° |
| 2026-04-20 17:14 | 50.77400 | -1.90811 | 2204 ft | 215 kts | 270° |
| 2026-04-20 17:15 | 50.77355 | -1.93327 | 2538 ft | 241 kts | 270° |
| 2026-04-20 17:15 | 50.77369 | -1.96108 | 2996 ft | 259 kts | 283° |
| 2026-04-20 17:15 | 50.78203 | -1.98564 | 3934 ft | 256 kts | 320° |
| 2026-04-20 17:15 | 50.79774 | -1.99743 | 5013 ft | 252 kts | 354° |
| 2026-04-20 17:16 | 50.81507 | -1.99439 | 5951 ft | 256 kts | 20° |
| 2026-04-20 17:16 | 50.83030 | -1.97953 | 6877 ft | 262 kts | 43° |
| 2026-04-20 17:16 | 50.84073 | -1.95568 | 7773 ft | 269 kts | 64° |
| 2026-04-20 17:16 | 50.84717 | -1.92734 | 8605 ft | 279 kts | 71° |
| 2026-04-20 17:17 | 50.85257 | -1.89754 | 9476 ft | 285 kts | 72° |
| 2026-04-20 17:17 | 50.85790 | -1.86701 | 10340 ft | 290 kts | 71° |
| 2026-04-20 17:17 | 50.86350 | -1.83545 | 10813 ft | 310 kts | 71° |
| 2026-04-20 17:17 | 50.86966 | -1.80150 | 11243 ft | 329 kts | 71° |
| 2026-04-20 17:18 | 50.87617 | -1.76620 | 11926 ft | 339 kts | 71° |
| 2026-04-20 17:18 | 50.88290 | -1.73009 | 12739 ft | 344 kts | 71° |
| 2026-04-20 17:18 | 50.88975 | -1.69349 | 13617 ft | 349 kts | 70° |
| 2026-04-20 17:18 | 50.89675 | -1.65627 | 14429 ft | 356 kts | 70° |
| 2026-04-20 17:19 | 50.90389 | -1.61836 | 15200 ft | 362 kts | 70° |
| 2026-04-20 17:19 | 50.91104 | -1.57964 | 15981 ft | 369 kts | 70° |
| 2026-04-20 17:19 | 50.91827 | -1.54036 | 16784 ft | 375 kts | 70° |
| 2026-04-20 17:19 | 50.92572 | -1.50042 | 17573 ft | 381 kts | 70° |
| 2026-04-20 17:20 | 50.93326 | -1.46039 | 18340 ft | 387 kts | 69° |
| 2026-04-20 17:20 | 50.94104 | -1.41926 | 19024 ft | 393 kts | 69° |
| 2026-04-20 17:20 | 50.95182 | -1.37971 | 19712 ft | 389 kts | 50° |
| 2026-04-20 17:20 | 50.96997 | -1.34899 | 20448 ft | 378 kts | 31° |
| 2026-04-20 17:21 | 50.99248 | -1.32867 | 21204 ft | 368 kts | 13° |
| 2026-04-20 17:21 | 51.01595 | -1.31760 | 21923 ft | 367 kts | 8° |
| 2026-04-20 17:21 | 51.04087 | -1.30768 | 22636 ft | 370 kts | 7° |
| 2026-04-20 17:21 | 51.06604 | -1.29793 | 23319 ft | 374 kts | 7° |
| 2026-04-20 17:22 | 51.09152 | -1.28785 | 23966 ft | 379 kts | 7° |
| 2026-04-20 17:22 | 51.11711 | -1.27744 | 24539 ft | 382 kts | 7° |
| 2026-04-20 17:22 | 51.14293 | -1.26672 | 25123 ft | 385 kts | 7° |
| 2026-04-20 17:22 | 51.16891 | -1.25584 | 25700 ft | 387 kts | 7° |
| 2026-04-20 17:23 | 51.19498 | -1.24491 | 26258 ft | 389 kts | 7° |
| 2026-04-20 17:23 | 51.22136 | -1.23378 | 26809 ft | 392 kts | 7° |
| 2026-04-20 17:23 | 51.24778 | -1.22258 | 27340 ft | 395 kts | 7° |
| 2026-04-20 17:23 | 51.27440 | -1.21122 | 28055 ft | 393 kts | 7° |
| 2026-04-20 17:24 | 51.30026 | -1.20015 | 28854 ft | 388 kts | 6° |
| 2026-04-20 17:24 | 51.32629 | -1.18904 | 29622 ft | 385 kts | 6° |
| 2026-04-20 17:24 | 51.35246 | -1.17790 | 30310 ft | 384 kts | 6° |
| 2026-04-20 17:24 | 51.37824 | -1.16689 | 30848 ft | 383 kts | 6° |
| 2026-04-20 17:25 | 51.40362 | -1.15598 | 31366 ft | 383 kts | 6° |
| 2026-04-20 17:25 | 51.42936 | -1.14488 | 31894 ft | 382 kts | 6° |
| 2026-04-20 17:25 | 51.45507 | -1.13378 | 32403 ft | 382 kts | 7° |
| 2026-04-20 17:25 | 51.48084 | -1.12266 | 32889 ft | 382 kts | 7° |
| 2026-04-20 17:26 | 51.50447 | -1.11254 | 33363 ft | 382 kts | 7° |
| 2026-04-20 17:26 | 51.53009 | -1.10164 | 33853 ft | 381 kts | 7° |
| 2026-04-20 17:26 | 51.55586 | -1.09070 | 34258 ft | 383 kts | 7° |
| 2026-04-20 17:27 | 51.60772 | -1.06859 | 34265 ft | 386 kts | 7° |
| 2026-04-20 17:27 | 51.65947 | -1.05237 | 34280 ft | 377 kts | 1° |
| 2026-04-20 17:28 | 51.71156 | -1.03996 | 34278 ft | 379 kts | 1° |
| 2026-04-20 17:28 | 51.76390 | -1.02686 | 34277 ft | 382 kts | 2° |
| 2026-04-20 17:29 | 51.81644 | -1.01323 | 34274 ft | 383 kts | 2° |
| 2026-04-20 17:29 | 51.86833 | -1.01112 | 34269 ft | 370 kts | 345° |
| 2026-04-20 17:30 | 51.91835 | -1.02770 | 34267 ft | 367 kts | 342° |
| 2026-04-20 17:30 | 51.96838 | -1.04483 | 34267 ft | 367 kts | 343° |
| 2026-04-20 17:31 | 52.01857 | -1.06141 | 34264 ft | 368 kts | 343° |
| 2026-04-20 17:31 | 52.06874 | -1.07768 | 34297 ft | 368 kts | 343° |
| 2026-04-20 17:32 | 52.11896 | -1.09402 | 34302 ft | 368 kts | 343° |
| 2026-04-20 17:32 | 52.16915 | -1.11049 | 34312 ft | 368 kts | 342° |
| 2026-04-20 17:33 | 52.21684 | -1.13756 | 34313 ft | 363 kts | 333° |
| 2026-04-20 17:33 | 52.26349 | -1.16946 | 34313 ft | 364 kts | 333° |
| 2026-04-20 17:34 | 52.31030 | -1.20132 | 34316 ft | 365 kts | 333° |
| 2026-04-20 17:34 | 52.35665 | -1.23267 | 34313 ft | 367 kts | 333° |
| 2026-04-20 17:35 | 52.40388 | -1.26459 | 34302 ft | 368 kts | 333° |
| 2026-04-20 17:35 | 52.45128 | -1.29669 | 34257 ft | 369 kts | 334° |
| 2026-04-20 17:36 | 52.49662 | -1.32747 | 34247 ft | 369 kts | 334° |
| 2026-04-20 17:36 | 52.54414 | -1.35977 | 34240 ft | 370 kts | 334° |
| 2026-04-20 17:37 | 52.59240 | -1.38952 | 34242 ft | 371 kts | 336° |
| 2026-04-20 17:37 | 52.64102 | -1.41828 | 34241 ft | 371 kts | 336° |
| 2026-04-20 17:38 | 52.68951 | -1.44729 | 34236 ft | 371 kts | 336° |
| 2026-04-20 17:38 | 52.72987 | -1.47168 | 34246 ft | 371 kts | 336° |
| 2026-04-20 17:39 | 52.77842 | -1.50116 | 34294 ft | 372 kts | 336° |
| 2026-04-20 17:39 | 52.82703 | -1.53077 | 34295 ft | 373 kts | 336° |
| 2026-04-20 17:40 | 52.87574 | -1.56052 | 34290 ft | 374 kts | 336° |
| 2026-04-20 17:40 | 52.92453 | -1.59039 | 34300 ft | 374 kts | 336° |
| 2026-04-20 17:41 | 52.97339 | -1.62036 | 34300 ft | 375 kts | 336° |
| 2026-04-20 17:41 | 53.02242 | -1.65051 | 34293 ft | 376 kts | 336° |
| 2026-04-20 17:42 | 53.07149 | -1.68076 | 34293 ft | 376 kts | 336° |
| 2026-04-20 17:42 | 53.12059 | -1.71110 | 34297 ft | 377 kts | 336° |
| 2026-04-20 17:43 | 53.16917 | -1.74125 | 34295 ft | 377 kts | 336° |
| 2026-04-20 17:43 | 53.21816 | -1.77231 | 34299 ft | 377 kts | 336° |
| 2026-04-20 17:44 | 53.26720 | -1.80361 | 34308 ft | 377 kts | 336° |
| 2026-04-20 17:44 | 53.31632 | -1.83500 | 34305 ft | 378 kts | 336° |
| 2026-04-20 17:45 | 53.36549 | -1.86646 | 34309 ft | 378 kts | 336° |
| 2026-04-20 17:45 | 53.41428 | -1.89774 | 34307 ft | 378 kts | 336° |
| 2026-04-20 17:46 | 53.46352 | -1.92939 | 34315 ft | 379 kts | 337° |
| 2026-04-20 17:46 | 53.51281 | -1.96115 | 34316 ft | 380 kts | 337° |
| 2026-04-20 17:47 | 53.55998 | -1.99161 | 34318 ft | 381 kts | 337° |
| 2026-04-20 17:47 | 53.60950 | -2.02368 | 34314 ft | 381 kts | 337° |
| 2026-04-20 17:48 | 53.65902 | -2.05582 | 34317 ft | 382 kts | 337° |
| 2026-04-20 17:48 | 53.70872 | -2.08817 | 34320 ft | 383 kts | 337° |
| 2026-04-20 17:49 | 53.75849 | -2.12065 | 34333 ft | 385 kts | 337° |
| 2026-04-20 17:49 | 53.80839 | -2.15330 | 34327 ft | 387 kts | 338° |
| 2026-04-20 17:50 | 53.85889 | -2.18640 | 34327 ft | 390 kts | 338° |
| 2026-04-20 17:50 | 53.90957 | -2.21972 | 34322 ft | 391 kts | 338° |
| 2026-04-20 17:51 | 53.96041 | -2.25323 | 34321 ft | 392 kts | 338° |
| 2026-04-20 17:51 | 54.01120 | -2.28679 | 34324 ft | 391 kts | 338° |
| 2026-04-20 17:52 | 54.06188 | -2.32120 | 34323 ft | 390 kts | 337° |
| 2026-04-20 17:52 | 54.11179 | -2.35583 | 34328 ft | 390 kts | 337° |
| 2026-04-20 17:53 | 54.16201 | -2.39073 | 34329 ft | 389 kts | 337° |
| 2026-04-20 17:53 | 54.21214 | -2.42558 | 34335 ft | 389 kts | 337° |
| 2026-04-20 17:54 | 54.26235 | -2.46054 | 34335 ft | 390 kts | 337° |
| 2026-04-20 17:54 | 54.31277 | -2.49573 | 34154 ft | 393 kts | 337° |
| 2026-04-20 17:54 | 54.33808 | -2.51342 | 33726 ft | 391 kts | 337° |
| 2026-04-20 17:55 | 54.36326 | -2.53105 | 33240 ft | 389 kts | 337° |
| 2026-04-20 17:55 | 54.38831 | -2.54861 | 32690 ft | 390 kts | 337° |
| 2026-04-20 17:55 | 54.41314 | -2.56604 | 32161 ft | 390 kts | 337° |
| 2026-04-20 17:55 | 54.43831 | -2.58373 | 31617 ft | 391 kts | 336° |
| 2026-04-20 17:56 | 54.46349 | -2.60146 | 31065 ft | 391 kts | 336° |
| 2026-04-20 17:56 | 54.48870 | -2.61923 | 30509 ft | 392 kts | 336° |
| 2026-04-20 17:56 | 54.51401 | -2.63710 | 29831 ft | 393 kts | 336° |
| 2026-04-20 17:56 | 54.53930 | -2.65497 | 29201 ft | 392 kts | 336° |
| 2026-04-20 17:57 | 54.56451 | -2.67281 | 28564 ft | 390 kts | 336° |
| 2026-04-20 17:57 | 54.58959 | -2.69059 | 27948 ft | 389 kts | 336° |
| 2026-04-20 17:57 | 54.61472 | -2.70842 | 27320 ft | 390 kts | 336° |
| 2026-04-20 17:57 | 54.64039 | -2.72668 | 26746 ft | 412 kts | 337° |
| 2026-04-20 17:58 | 54.66768 | -2.74614 | 26212 ft | 437 kts | 337° |
| 2026-04-20 17:58 | 54.69596 | -2.76631 | 25630 ft | 448 kts | 337° |
| 2026-04-20 17:58 | 54.72479 | -2.78687 | 25078 ft | 448 kts | 337° |
| 2026-04-20 17:58 | 54.75343 | -2.80731 | 24496 ft | 441 kts | 337° |
| 2026-04-20 17:59 | 54.78151 | -2.82741 | 23937 ft | 433 kts | 337° |
| 2026-04-20 17:59 | 54.80902 | -2.84712 | 23563 ft | 420 kts | 337° |
| 2026-04-20 17:59 | 54.83567 | -2.86624 | 23274 ft | 411 kts | 337° |
| 2026-04-20 17:59 | 54.86196 | -2.88514 | 22984 ft | 408 kts | 337° |
| 2026-04-20 18:00 | 54.88833 | -2.90416 | 22715 ft | 412 kts | 337° |
| 2026-04-20 18:00 | 54.91486 | -2.92336 | 22437 ft | 414 kts | 337° |
| 2026-04-20 18:00 | 54.94149 | -2.94267 | 22166 ft | 416 kts | 338° |
| 2026-04-20 18:00 | 54.96830 | -2.96214 | 21892 ft | 417 kts | 338° |
| 2026-04-20 18:01 | 54.99510 | -2.98163 | 21150 ft | 418 kts | 338° |
| 2026-04-20 18:01 | 55.02199 | -3.00121 | 20196 ft | 419 kts | 338° |
| 2026-04-20 18:01 | 55.04876 | -3.02074 | 19478 ft | 414 kts | 338° |
| 2026-04-20 18:01 | 55.07484 | -3.03978 | 18782 ft | 409 kts | 339° |
| 2026-04-20 18:02 | 55.10100 | -3.05892 | 18072 ft | 405 kts | 338° |
| 2026-04-20 18:02 | 55.12649 | -3.07760 | 17825 ft | 391 kts | 339° |
| 2026-04-20 18:02 | 55.15159 | -3.09599 | 17573 ft | 396 kts | 339° |
| 2026-04-20 18:02 | 55.17690 | -3.11454 | 17232 ft | 390 kts | 339° |
| 2026-04-20 18:03 | 55.20199 | -3.13295 | 16421 ft | 392 kts | 339° |
| 2026-04-20 18:03 | 55.22721 | -3.15145 | 15554 ft | 394 kts | 339° |
| 2026-04-20 18:03 | 55.25248 | -3.17002 | 14833 ft | 392 kts | 339° |
| 2026-04-20 18:03 | 55.27762 | -3.18855 | 14041 ft | 392 kts | 339° |
| 2026-04-20 18:04 | 55.30231 | -3.20753 | 13167 ft | 382 kts | 334° |
| 2026-04-20 18:04 | 55.32483 | -3.22948 | 12919 ft | 357 kts | 330° |
| 2026-04-20 18:04 | 55.34526 | -3.25155 | 12765 ft | 333 kts | 329° |
| 2026-04-20 18:04 | 55.36424 | -3.27263 | 12627 ft | 313 kts | 328° |
| 2026-04-20 18:05 | 55.39950 | -3.31166 | 11974 ft | 293 kts | 329° |
| 2026-04-20 18:05 | 55.41654 | -3.33034 | 11482 ft | 292 kts | 329° |
| 2026-04-20 18:05 | 55.43371 | -3.34905 | 11009 ft | 288 kts | 329° |
| 2026-04-20 18:06 | 55.45072 | -3.36754 | 10541 ft | 286 kts | 328° |
| 2026-04-20 18:06 | 55.46753 | -3.38579 | 10116 ft | 282 kts | 328° |
| 2026-04-20 18:06 | 55.48419 | -3.40387 | 9715 ft | 282 kts | 329° |
| 2026-04-20 18:06 | 55.50090 | -3.42202 | 9384 ft | 282 kts | 329° |
| 2026-04-20 18:07 | 55.51760 | -3.44017 | 9069 ft | 281 kts | 329° |
| 2026-04-20 18:07 | 55.53425 | -3.45827 | 8765 ft | 281 kts | 329° |
| 2026-04-20 18:07 | 55.55091 | -3.47639 | 8449 ft | 281 kts | 329° |
| 2026-04-20 18:07 | 55.56752 | -3.49449 | 8131 ft | 280 kts | 329° |
| 2026-04-20 18:08 | 55.58409 | -3.51255 | 7848 ft | 279 kts | 329° |
| 2026-04-20 18:08 | 55.60065 | -3.53061 | 7532 ft | 279 kts | 329° |
| 2026-04-20 18:08 | 55.61712 | -3.54862 | 7238 ft | 278 kts | 329° |
| 2026-04-20 18:08 | 55.63358 | -3.56664 | 6935 ft | 275 kts | 329° |
| 2026-04-20 18:09 | 55.64952 | -3.58407 | 6623 ft | 267 kts | 330° |
| 2026-04-20 18:09 | 55.66504 | -3.60108 | 6330 ft | 258 kts | 330° |
| 2026-04-20 18:09 | 55.68001 | -3.61750 | 6238 ft | 249 kts | 330° |
| 2026-04-20 18:09 | 55.69459 | -3.63349 | 6139 ft | 243 kts | 330° |
| 2026-04-20 18:10 | 55.70880 | -3.64910 | 6023 ft | 237 kts | 330° |
| 2026-04-20 18:10 | 55.72247 | -3.66412 | 5925 ft | 231 kts | 330° |
| 2026-04-20 18:10 | 55.73603 | -3.67903 | 5828 ft | 226 kts | 330° |
| 2026-04-20 18:10 | 55.74921 | -3.69351 | 5734 ft | 220 kts | 330° |
| 2026-04-20 18:11 | 55.76221 | -3.70785 | 5551 ft | 220 kts | 331° |
| 2026-04-20 18:11 | 55.77522 | -3.72218 | 5339 ft | 220 kts | 330° |
| 2026-04-20 18:11 | 55.78826 | -3.73647 | 5117 ft | 220 kts | 334° |
| 2026-04-20 18:11 | 55.80266 | -3.74285 | 4880 ft | 212 kts | 9° |
| 2026-04-20 18:12 | 55.81626 | -3.73535 | 4722 ft | 203 kts | 28° |
| 2026-04-20 18:12 | 55.82824 | -3.72167 | 4365 ft | 203 kts | 52° |
| 2026-04-20 18:12 | 55.83663 | -3.70272 | 4277 ft | 195 kts | 54° |
| 2026-04-20 18:12 | 55.84469 | -3.68338 | 4050 ft | 195 kts | 58° |
| 2026-04-20 18:13 | 55.85206 | -3.66300 | 3792 ft | 197 kts | 61° |
| 2026-04-20 18:13 | 55.85918 | -3.64211 | 3538 ft | 196 kts | 61° |
| 2026-04-20 18:13 | 55.86611 | -3.62148 | 3262 ft | 192 kts | 61° |
| 2026-04-20 18:13 | 55.87286 | -3.60136 | 2995 ft | 186 kts | 61° |
| 2026-04-20 18:14 | 55.87941 | -3.58186 | 2734 ft | 182 kts | 61° |
| 2026-04-20 18:14 | 55.88581 | -3.56283 | 2484 ft | 177 kts | 61° |
| 2026-04-20 18:14 | 55.89198 | -3.54450 | 2241 ft | 173 kts | 61° |
| 2026-04-20 18:14 | 55.89812 | -3.52622 | 1997 ft | 170 kts | 61° |
| 2026-04-20 18:15 | 55.90415 | -3.50830 | 1775 ft | 166 kts | 61° |
| 2026-04-20 18:15 | 55.90996 | -3.49106 | 1533 ft | 157 kts | 60° |
| 2026-04-20 18:15 | 55.91531 | -3.47519 | 1352 ft | 140 kts | 60° |
| 2026-04-20 18:15 | 55.92013 | -3.46087 | 1131 ft | 132 kts | 60° |
| 2026-04-20 18:16 | 55.92483 | -3.44696 | 941 ft | 130 kts | 61° |
| 2026-04-20 18:16 | 55.92938 | -3.43345 | 761 ft | 126 kts | 60° |
| 2026-04-20 18:16 | 55.93391 | -3.42003 | 588 ft | 127 kts | 60° |
| 2026-04-20 18:16 | 55.93846 | -3.40654 | 421 ft | 129 kts | 59° |
| 2026-04-20 18:17 | 55.94301 | -3.39306 | 241 ft | 124 kts | 60° |
| 2026-04-20 18:17 | 55.94747 | -3.37995 | 114 ft | 119 kts | 59° |
| 2026-04-20 18:17 | 55.95082 | -3.36999 | 111 ft | 53 kts | 58° |
| 2026-04-20 18:17 | 55.95209 | -3.36628 | 112 ft | 26 kts | 58° |
| 2026-04-20 18:18 | 55.95258 | -3.36472 | 111 ft | 8 kts | 79° |
| 2026-04-20 18:18 | 55.95234 | -3.36396 | 112 ft | 7 kts | 144° |
| 2026-04-20 18:18 | 55.95199 | -3.36357 | 113 ft | 2 kts | 148° |
| 2026-04-20 18:18 | 55.95175 | -3.36331 | 114 ft | 6 kts | 148° |
| 2026-04-20 18:19 | 55.95123 | -3.36332 | 113 ft | 11 kts | 217° |
| 2026-04-20 18:19 | 55.95064 | -3.36488 | 114 ft | 19 kts | 239° |
| 2026-04-20 18:19 | 55.94994 | -3.36694 | 113 ft | 19 kts | 238° |
| 2026-04-20 18:19 | 55.94940 | -3.36819 | 113 ft | 8 kts | 202° |
| 2026-04-20 18:20 | 55.94894 | -3.36799 | 114 ft | 7 kts | 149° |
| 2026-04-20 18:20 | 55.94849 | -3.36780 | 115 ft | 7 kts | 179° |
| 2026-04-20 18:20 | 55.94826 | -3.36779 | 115 ft | 2 kts | 178° |
| 2026-04-20 18:20 | 55.94810 | -3.36778 | 115 ft | 3 kts | 177° |
| 2026-04-20 18:21 | 55.94800 | -3.36763 | 115 ft | 2 kts | 118° |
| 2026-04-20 18:21 | 55.94800 | -3.36716 | 115 ft | 5 kts | 89° |
| 2026-04-20 18:21 | 55.94800 | -3.36670 | 115 ft | 3 kts | 89° |
| 2026-04-20 18:21 | 55.94801 | -3.36647 | 115 ft | 0 kts | 89° |
| 2026-04-20 18:22 | 55.94801 | -3.36646 | 115 ft | 0 kts | 89° |
| 2026-04-20 18:22 | 55.94801 | -3.36645 | 115 ft | 0 kts | 89° |